Buoy 62910

sailwx.info

Track history (hours):
 
Tides and Currents Weather Stations Pressure Air Temp Water Temp Dewpoint Dewpoint Depression Visibility Wind Speed Wind Dir Waves Ship Positions

Drifting buoy 62910

Last reported at 2014-Dec-20 10:47 UTC. Time now 2014-Dec-20 13:00 UTC.
Position N 42°51' E 008°04'.

Water temperature 15.6 ° C

Date/timePositionNaut miles runAvg speedWind from/ knotsBaromVisibWave heightAir tempDewpointWater temp
2014-Dec-20 10:47N 42°51' E 008°04'0 1.4 15.6
2014-Dec-20 10:28N 42°51' E 008°03'0 0.0 15.6
2014-Dec-20 09:37N 42°51' E 008°03'0 3.7 15.6
2014-Dec-20 09:31N 42°51' E 008°03'0 0.2 15.6
2014-Dec-20 08:44N 42°51' E 008°03'0 0.0 15.6
2014-Dec-20 07:52N 42°51' E 008°03'0 0.0 15.6
2014-Dec-20 06:43N 42°51' E 008°03'0 0.0 15.6
2014-Dec-20 06:40N 42°51' E 008°03'0 0.0 15.6
2014-Dec-20 06:13N 42°51' E 008°03'136.5 15.6
2014-Dec-20 06:12N 42°51' E 008°02'0 5.3 15.6
2014-Dec-20 06:08N 42°51' E 008°02'1 0.6 15.6
2014-Dec-20 05:01N 42°52' E 008°01'0 0.5 15.6
2014-Dec-20 04:33N 42°52' E 008°01'1 5.0 15.6
2014-Dec-20 04:24N 42°52' E 008°01'1 0.4 15.6
2014-Dec-20 02:47N 42°52' E 008°01'0 0.0 15.6
2014-Dec-20 02:45N 42°52' E 008°01'0 0.1 15.6
2014-Dec-20 01:04N 42°52' E 008°00'2 0.4 15.6
2014-Dec-19 21:23N 42°52' E 007°58'0 2.0 15.6
2014-Dec-19 21:13N 42°52' E 007°58'0 0.0 15.7
2014-Dec-19 20:36N 42°52' E 007°58'0 0.0
2014-Dec-19 20:32N 42°52' E 007°58'1 4.3 15.7
2014-Dec-19 20:25N 42°52' E 007°57'0 0.4 15.7
2014-Dec-19 19:32N 42°52' E 007°58'0 0.0 15.7
2014-Dec-19 18:55N 42°52' E 007°58'123.5 15.7
2014-Dec-19 18:53N 42°53' E 007°57'0 0.0 15.7
2014-Dec-19 18:27N 42°53' E 007°57'0 0.0 15.7
2014-Dec-19 17:51N 42°53' E 007°57'0 0.4 15.7
2014-Dec-19 17:09N 42°53' E 007°57'0 0.0 15.7
2014-Dec-19 16:48N 42°53' E 007°57'0 0.0 15.7
2014-Dec-19 16:42N 42°53' E 007°57'0 0.0 15.7
2014-Dec-19 16:12N 42°53' E 007°57'1 6.7 15.7
2014-Dec-19 16:05N 42°52' E 007°56'0 0.0 15.7
2014-Dec-19 15:07N 42°52' E 007°56'0 0.8 15.7
2014-Dec-19 14:32N 42°52' E 007°55'0 3.6 15.8
2014-Dec-19 14:26N 42°52' E 007°55'0 0.0 15.8
2014-Dec-19 12:47N 42°52' E 007°55'0 0.0 15.7
2014-Dec-19 12:46N 42°52' E 007°55'1 0.5 15.7
2014-Dec-19 11:37N 42°52' E 007°56'1 1.2 15.7
2014-Dec-19 11:00N 42°51' E 007°55'0 0.0 15.7
2014-Dec-19 10:46N 42°51' E 007°55'0 0.0 15.7
2014-Dec-19 09:58N 42°51' E 007°55'0 0.2 15.7
2014-Dec-19 09:07N 42°52' E 007°55'0 0.5 15.7
2014-Dec-19 08:17N 42°52' E 007°54'0 4.5 15.7
2014-Dec-19 08:14N 42°52' E 007°55'1 0.7 15.7
2014-Dec-19 07:07N 42°52' E 007°54'0 0.0
2014-Dec-19 06:45N 42°52' E 007°54'1 1.9 15.7
2014-Dec-19 06:22N 42°52' E 007°53'1 0.7 15.7
2014-Dec-19 05:03N 42°53' E 007°52'0 0.0 15.7
2014-Dec-19 04:43N 42°53' E 007°52'0 0.0 15.7
2014-Dec-19 03:47N 42°53' E 007°52'1 1.7 15.7
2014-Dec-19 03:22N 42°53' E 007°51'0 1.0 15.7
2014-Dec-19 02:57N 42°53' E 007°51'3 1.8 15.7
2014-Dec-19 01:15N 42°50' E 007°48'0 0.0 15.7
2014-Dec-18 21:43N 42°50' E 007°48'1 6.9 15.7
2014-Dec-18 21:36N 42°50' E 007°48'0 0.0 15.7
2014-Dec-18 21:32N 42°50' E 007°48'0 0.0 15.7
2014-Dec-18 20:55N 42°50' E 007°48'0 1.1 15.7
2014-Dec-18 20:45N 42°50' E 007°48'0 0.0 15.7
2014-Dec-18 20:00N 42°50' E 007°48'0 3.1 15.7
2014-Dec-18 19:53N 42°49' E 007°48'0 0.2 15.7
2014-Dec-18 19:25N 42°49' E 007°48'0 2.2 15.7
2014-Dec-18 19:13N 42°49' E 007°49'0 3.3 15.7
2014-Dec-18 19:06N 42°49' E 007°48'0 0.0 15.7
2014-Dec-18 18:20N 42°49' E 007°48'0 0.0 15.8
2014-Dec-18 17:48N 42°49' E 007°48'0 3.6 15.8
2014-Dec-18 17:43N 42°50' E 007°48'0 0.7 15.8
2014-Dec-18 17:11N 42°49' E 007°49'0 0.1 15.8
2014-Dec-18 16:23N 42°49' E 007°49'0 6.3 15.8
2014-Dec-18 16:20N 42°49' E 007°48'0 0.2 15.8
2014-Dec-18 15:34N 42°49' E 007°48'0 0.3 15.9
2014-Dec-18 14:44N 42°50' E 007°48'0 1.9 16.0
2014-Dec-18 14:37N 42°49' E 007°48'2 1.2 16.0
2014-Dec-18 13:00N 42°51' E 007°46'0 0.0 16.0
2014-Dec-18 12:58N 42°51' E 007°46'0 0.0 16.0
2014-Dec-18 11:53N 42°51' E 007°46'0 0.0 15.9
2014-Dec-18 11:16N 42°51' E 007°46'1 6.5
2014-Dec-18 11:05N 42°50' E 007°45'0 0.0
2014-Dec-18 11:02N 42°50' E 007°45'0 0.0 15.8
2014-Dec-18 10:19N 42°50' E 007°45'3 3.1 15.8
2014-Dec-18 09:24N 42°47' E 007°43'0 0.0 15.7
2014-Dec-18 08:35N 42°47' E 007°43'0 0.0 15.7
2014-Dec-18 07:16N 42°47' E 007°43'0 0.0 15.7
2014-Dec-18 06:33N 42°47' E 007°43'0 0.0 15.7
2014-Dec-18 05:51N 42°47' E 007°43'0 1.6 15.7
2014-Dec-18 05:35N 42°47' E 007°43'0 0.6 15.7
2014-Dec-18 04:58N 42°46' E 007°43'0 0.0 15.7
2014-Dec-18 04:54N 42°46' E 007°43'0 0.0 15.7
2014-Dec-18 04:08N 42°46' E 007°43'0 0.3 15.7
2014-Dec-18 03:56N 42°46' E 007°43'0 0.2 15.7
2014-Dec-18 03:15N 42°46' E 007°43'0 0.7 15.7
2014-Dec-18 03:10N 42°46' E 007°43'0 5.4 15.7
2014-Dec-18 03:08N 42°46' E 007°43'0 0.3 15.7
2014-Dec-18 01:33N 42°46' E 007°43'0 0.7 15.7
2014-Dec-18 01:27N 42°46' E 007°43'1 9.5 15.7
2014-Dec-18 01:19N 42°47' E 007°43'0 0.0 15.7
2014-Dec-17 22:04N 42°47' E 007°43'1 0.9 15.8
2014-Dec-17 21:13N 42°46' E 007°43'1 9.1
2014-Dec-17 21:06N 42°47' E 007°41'0 0.0 15.8
2014-Dec-17 20:24N 42°47' E 007°41'1 3.5 15.8
2014-Dec-17 20:15N 42°46' E 007°42'0 0.0 15.8
2014-Dec-17 19:55N 42°46' E 007°42'1 1.9 15.8
2014-Dec-17 19:25N 42°46' E 007°40'0 0.0 15.8
2014-Dec-17 17:38N 42°46' E 007°40'115.2 15.9
2014-Dec-17 17:34N 42°46' E 007°39'0 0.0 15.9
2014-Dec-17 16:41N 42°46' E 007°39'0 1.3 15.9
2014-Dec-17 16:36N 42°46' E 007°39'1 2.1 15.9
2014-Dec-17 15:59N 42°45' E 007°38'0 0.3 15.9
2014-Dec-17 14:51N 42°46' E 007°38'140.5 15.9
2014-Dec-17 14:50N 42°46' E 007°37'1 1.8 15.9
2014-Dec-17 14:18N 42°45' E 007°37'0 0.0 15.9
2014-Dec-17 13:11N 42°45' E 007°37'0 0.0 15.9
2014-Dec-17 13:07N 42°45' E 007°37'117.1
2014-Dec-17 13:02N 42°44' E 007°36'0 0.2 15.9
2014-Dec-17 11:30N 42°45' E 007°36'0 9.4 15.9
2014-Dec-17 11:28N 42°44' E 007°36'0 3.8 15.9
2014-Dec-17 11:21N 42°44' E 007°35'0 0.1 15.9
2014-Dec-17 10:39N 42°44' E 007°35'0 0.2 15.9
2014-Dec-17 09:51N 42°44' E 007°35'1 0.6 15.9
2014-Dec-17 08:58N 42°43' E 007°35'1 1.1 15.9
2014-Dec-17 08:05N 42°43' E 007°34'0 0.0 15.9
2014-Dec-17 06:44N 42°43' E 007°34'0 0.8 15.9
2014-Dec-17 06:14N 42°42' E 007°34'0 6.0 15.9
2014-Dec-17 06:10N 42°43' E 007°34'0 0.4 15.9
2014-Dec-17 05:08N 42°42' E 007°34'0 1.3 15.9
2014-Dec-17 05:03N 42°42' E 007°34'1 1.7 15.9
2014-Dec-17 04:33N 42°42' E 007°33'0 0.0 15.9
2014-Dec-17 04:28N 42°42' E 007°33'1 0.8 15.9
2014-Dec-17 03:28N 42°42' E 007°32'0 0.0 15.9
2014-Dec-17 03:22N 42°42' E 007°32'0 0.0 15.9
2014-Dec-17 03:19N 42°42' E 007°32'0 0.0 15.9
2014-Dec-17 03:14N 42°42' E 007°32'3 1.8 15.9
2014-Dec-17 01:40N 42°42' E 007°28'0 0.0 15.9
2014-Dec-16 23:52N 42°42' E 007°28'0 0.0 15.9
2014-Dec-16 22:24N 42°42' E 007°28'0 0.0 15.9
2014-Dec-16 21:29N 42°42' E 007°28'0 0.0 15.9
2014-Dec-16 20:43N 42°42' E 007°28'0 2.1 15.9
2014-Dec-16 20:36N 42°42' E 007°28'1 7.9 15.9
2014-Dec-16 20:27N 42°42' E 007°27'0 0.0 15.9
2014-Dec-16 19:50N 42°42' E 007°27'0 0.0 15.9
2014-Dec-16 19:47N 42°42' E 007°27'0 0.0 15.9
2014-Dec-16 19:01N 42°42' E 007°27'0 0.0 15.9
2014-Dec-16 18:50N 42°42' E 007°27'1 1.0 15.9
2014-Dec-16 18:02N 42°42' E 007°26'0 6.6 15.9
2014-Dec-16 17:59N 42°42' E 007°26'0 0.0 15.9
2014-Dec-16 17:13N 42°42' E 007°26'0 0.0 15.9
2014-Dec-16 17:08N 42°42' E 007°26'0 1.0 15.9
2014-Dec-16 16:46N 42°41' E 007°26'5 0.3 15.9
2014-Dec-16 00:07N 42°40' E 007°19'0 0.0 16.0
2014-Dec-15 22:44N 42°40' E 007°19'0 0.0 16.0
2014-Dec-15 21:49N 42°40' E 007°19'0 0.0 16.0
2014-Dec-15 21:03N 42°40' E 007°19'1 8.9 15.9
2014-Dec-15 20:58N 42°39' E 007°18'0 0.0 15.9
2014-Dec-15 20:54N 42°39' E 007°18'0 0.0 15.9
2014-Dec-15 20:17N 42°39' E 007°18'1 5.0 15.9
2014-Dec-15 20:08N 42°38' E 007°17'0 0.0 15.9
2014-Dec-15 19:20N 42°38' E 007°17'0 0.0 15.9
2014-Dec-15 18:24N 42°38' E 007°17'0 0.0 15.9
2014-Dec-15 17:45N 42°38' E 007°17'1 5.1 15.9
2014-Dec-15 17:38N 42°39' E 007°17'0 0.0 15.9
2014-Dec-15 16:59N 42°39' E 007°17'1 3.7 15.9
2014-Dec-15 16:47N 42°38' E 007°17'0 0.0 15.9
2014-Dec-15 15:20N 42°38' E 007°17'0 2.6 15.9
2014-Dec-15 15:10N 42°38' E 007°16'0 0.0 15.9
2014-Dec-15 15:04N 42°38' E 007°16'0 0.0 15.9
2014-Dec-15 13:34N 42°38' E 007°16'0 0.0 15.9
2014-Dec-15 13:31N 42°38' E 007°16'0 0.0
2014-Dec-15 13:29N 42°38' E 007°16'0 0.0 15.9
2014-Dec-15 11:46N 42°38' E 007°16'0 0.0 15.9
2014-Dec-15 11:20N 42°38' E 007°16'0 0.0 15.9
2014-Dec-15 10:32N 42°38' E 007°16'0 3.8 15.9
2014-Dec-15 10:25N 42°38' E 007°16'0 0.0 15.9
2014-Dec-15 09:41N 42°38' E 007°16'0 0.0 15.8
2014-Dec-15 08:55N 42°38' E 007°16'0 0.0 15.8
2014-Dec-15 08:50N 42°38' E 007°16'1 1.4 15.8
2014-Dec-15 07:53N 42°38' E 007°14'0 0.0 15.8
2014-Dec-15 07:09N 42°38' E 007°14'0 0.0 15.8
2014-Dec-15 07:04N 42°38' E 007°14'0 0.0 15.8
2014-Dec-15 07:00N 42°38' E 007°14'0 0.0 15.8
2014-Dec-15 05:32N 42°38' E 007°14'0 0.0 15.8
2014-Dec-15 05:28N 42°38' E 007°14'0 0.0 15.8
2014-Dec-15 05:23N 42°38' E 007°14'0 0.3 15.8
2014-Dec-15 03:51N 42°38' E 007°13'0 0.0 15.9
2014-Dec-15 03:44N 42°38' E 007°13'0 0.0 15.9
2014-Dec-15 03:37N 42°38' E 007°13'0 0.0 15.9
2014-Dec-15 02:00N 42°38' E 007°13'0 0.0 15.9
2014-Dec-15 01:53N 42°38' E 007°13'0 0.0 15.9
2014-Dec-15 00:21N 42°38' E 007°13'112.8 15.9
2014-Dec-15 00:16N 42°38' E 007°12'0 0.0 15.9
2014-Dec-14 22:17N 42°38' E 007°12'0 0.0 14.5
2014-Dec-14 21:24N 42°38' E 007°12'1 4.0 15.9
2014-Dec-14 21:15N 42°37' E 007°12'0 0.0 15.9
2014-Dec-14 20:38N 42°37' E 007°12'0 0.0 15.9
2014-Dec-14 20:28N 42°37' E 007°12'0 0.7 15.9
2014-Dec-14 19:52N 42°37' E 007°13'0 3.3 15.9
2014-Dec-14 19:44N 42°37' E 007°12'0 3.3 15.9
2014-Dec-14 19:36N 42°37' E 007°13'0 0.0 15.9
2014-Dec-14 18:52N 42°37' E 007°13'0 0.0 15.9
2014-Dec-14 18:12N 42°37' E 007°13'0 0.0 15.9
2014-Dec-14 18:03N 42°37' E 007°13'0 0.5 15.9
2014-Dec-14 17:13N 42°37' E 007°12'0 8.8
2014-Dec-14 17:10N 42°37' E 007°11'0 0.0 15.9
2014-Dec-14 16:34N 42°37' E 007°11'0 0.0 15.9
2014-Dec-14 15:31N 42°37' E 007°11'0 0.0 15.9
2014-Dec-14 15:29N 42°37' E 007°11'0 2.6 15.9
2014-Dec-14 15:19N 42°37' E 007°11'0 0.0 15.9
2014-Dec-14 13:48N 42°37' E 007°11'1 6.4 15.9
2014-Dec-14 13:41N 42°37' E 007°10'110.6 15.9
2014-Dec-14 13:36N 42°37' E 007°11'126.5 15.9
2014-Dec-14 13:34N 42°37' E 007°10'0 0.0 15.9
2014-Dec-14 11:59N 42°37' E 007°10'113.2 15.9
2014-Dec-14 11:55N 42°37' E 007°09'2 6.2 15.9
2014-Dec-14 11:38N 42°37' E 007°11'0 0.0 15.9
2014-Dec-14 10:54N 42°37' E 007°11'0 0.0 15.9
2014-Dec-14 10:50N 42°37' E 007°11'1 1.6 15.9
2014-Dec-14 10:01N 42°37' E 007°10'0 0.5 15.9
2014-Dec-14 09:11N 42°37' E 007°09'1 1.6 15.9
2014-Dec-14 08:16N 42°35' E 007°08'0 0.0 15.9
2014-Dec-14 05:58N 42°35' E 007°08'0 0.0 15.9
2014-Dec-14 05:43N 42°35' E 007°08'0 0.0 15.9
2014-Dec-14 05:37N 42°35' E 007°08'0 0.0 15.9
2014-Dec-14 04:18N 42°35' E 007°08'0 3.8 15.9
2014-Dec-14 04:11N 42°35' E 007°08'0 0.0 15.9
2014-Dec-14 04:09N 42°35' E 007°08'1 3.3 15.9
2014-Dec-14 03:58N 42°35' E 007°08'1 3.7 15.9
2014-Dec-14 03:46N 42°34' E 007°08'0 0.1 15.9
2014-Dec-14 02:18N 42°34' E 007°08'0 0.0 15.9
2014-Dec-14 00:30N 42°34' E 007°08'7 0.3 15.9
2014-Dec-12 22:07N 42°28' E 007°04'0 0.0 16.0
2014-Dec-12 21:58N 42°28' E 007°04'1 1.4 16.0
2014-Dec-12 21:10N 42°27' E 007°03'0 0.0 16.0
2014-Dec-12 20:30N 42°27' E 007°03'0 0.0 16.0
2014-Dec-12 20:17N 42°27' E 007°03'0 0.0 16.0
2014-Dec-12 19:33N 42°27' E 007°03'0 7.9 16.0
2014-Dec-12 19:30N 42°28' E 007°04'0 0.2 16.0
2014-Dec-12 19:14N 42°28' E 007°04'0 0.7 16.0
2014-Dec-12 18:44N 42°27' E 007°04'0 0.4 16.0
2014-Dec-12 17:58N 42°27' E 007°04'1 0.4 16.0
2014-Dec-12 15:54N 42°27' E 007°03'1 0.4 16.1
2014-Dec-12 14:12N 42°26' E 007°03'1 0.5 16.1
2014-Dec-12 12:15N 42°26' E 007°01'0 0.3 16.1
2014-Dec-12 10:38N 42°25' E 007°02'0 0.1 16.1
2014-Dec-12 09:01N 42°25' E 007°02'124.7 16.1
2014-Dec-12 08:59N 42°24' E 007°01'0 0.0 16.1
2014-Dec-12 08:08N 42°24' E 007°01'1 0.4 16.1
2014-Dec-12 06:38N 42°25' E 007°02'0 0.1 16.1
2014-Dec-12 05:23N 42°24' E 007°02'0 0.7 16.1
2014-Dec-12 04:59N 42°24' E 007°02'0 0.0 16.1
2014-Dec-12 04:22N 42°24' E 007°02'0 0.3 16.2
2014-Dec-12 04:13N 42°24' E 007°02'0 0.8 16.2
2014-Dec-12 03:46N 42°24' E 007°02'1 1.2 16.2
2014-Dec-12 03:16N 42°25' E 007°02'0 0.0 16.2
2014-Dec-12 02:36N 42°25' E 007°02'0 1.3 16.2
2014-Dec-12 02:34N 42°25' E 007°02'217.1 16.2
2014-Dec-12 02:27N 42°23' E 007°01'0 0.0 16.2
2014-Dec-11 22:27N 42°23' E 007°01'0 0.3 16.2
2014-Dec-11 21:30N 42°23' E 007°01'0 0.0 16.2
2014-Dec-11 20:48N 42°23' E 007°01'0 2.2 16.2
2014-Dec-11 20:41N 42°23' E 007°01'0 0.0 16.2
2014-Dec-11 20:00N 42°23' E 007°01'0 0.4 16.2
2014-Dec-11 19:48N 42°23' E 007°01'1 0.8 16.2
2014-Dec-11 19:05N 42°22' E 007°01'0 0.0 16.2
2014-Dec-11 18:07N 42°22' E 007°01'0 0.0 16.2
2014-Dec-11 16:47N 42°22' E 007°01'2 5.3 16.3
2014-Dec-11 16:28N 42°23' E 007°03'1 1.0
2014-Dec-11 15:56N 42°23' E 007°04'0 0.1 16.3
2014-Dec-11 15:03N 42°23' E 007°04'3 3.3 16.3
2014-Dec-11 14:15N 42°25' E 007°05'0 0.0 16.3
2014-Dec-11 10:52N 42°25' E 007°05'122.4 16.3
2014-Dec-11 10:49N 42°26' E 007°03'0 0.0 16.3
2014-Dec-11 10:15N 42°26' E 007°03'2 2.2 16.3
2014-Dec-11 09:22N 42°25' E 007°01'0 0.0 16.3
2014-Dec-11 08:29N 42°25' E 007°01'0 0.0 16.3
2014-Dec-11 07:36N 42°25' E 007°01'0 0.0 16.3
2014-Dec-11 07:04N 42°25' E 007°01'0 0.2 16.3
2014-Dec-11 06:13N 42°25' E 007°01'0 1.6 16.3
2014-Dec-11 05:57N 42°25' E 007°00'1 1.7 16.3
2014-Dec-11 05:22N 42°24' E 007°00'1 1.4 16.3
2014-Dec-11 04:24N 42°23' E 006°60'1 9.1 16.3
2014-Dec-11 04:15N 42°24' E 006°59'1 2.7 16.3
2014-Dec-11 03:45N 42°23' E 006°60'0 0.0 16.3
2014-Dec-11 02:54N 42°23' E 006°60'1 8.0 16.3
2014-Dec-11 02:46N 42°23' E 006°58'224.4 16.3
2014-Dec-11 02:41N 42°21' E 006°59'0 0.0 16.3
2014-Dec-11 01:06N 42°21' E 006°59'2 0.7 16.3
2014-Dec-10 22:46N 42°20' E 007°01'237.1 16.3
2014-Dec-10 22:43N 42°19' E 007°04'0 0.0
2014-Dec-10 21:57N 42°19' E 007°04'0 0.0 16.3
2014-Dec-10 21:09N 42°19' E 007°04'0 2.7 16.3
2014-Dec-10 20:58N 42°20' E 007°03'0 0.1
2014-Dec-10 20:16N 42°20' E 007°03'236.0 16.3
2014-Dec-10 20:12N 42°22' E 007°03'0 0.0 16.3
2014-Dec-10 18:39N 42°22' E 007°03'0 0.0 16.4
2014-Dec-10 18:37N 42°22' E 007°03'0 0.0 16.4
2014-Dec-10 17:51N 42°22' E 007°03'1 1.2 16.4
2014-Dec-10 17:09N 42°23' E 007°02'0 0.0 16.4
2014-Dec-10 16:56N 42°23' E 007°02'0 0.0 16.4
2014-Dec-10 16:18N 42°23' E 007°02'1 7.5 16.4
2014-Dec-10 16:07N 42°23' E 007°01'0 0.0 16.4
2014-Dec-10 14:32N 42°23' E 007°01'230.6 16.4
2014-Dec-10 14:28N 42°22' E 006°58'234.2 16.4
2014-Dec-10 14:24N 42°23' E 007°01'2 1.3 16.4
2014-Dec-10 12:42N 42°22' E 006°58'2 1.6 16.4
2014-Dec-10 11:22N 42°20' E 006°58'0 0.0 16.4
2014-Dec-10 11:05N 42°20' E 006°58'0 6.0 16.4
2014-Dec-10 11:00N 42°20' E 006°58'   16.4
Track history (hours):
 
Tides and Currents Weather Stations Pressure Air Temp Water Temp Dewpoint Dewpoint Depression Visibility Wind Speed Wind Dir Waves Ship Positions

Drifting buoy 62910

Last reported at 2014-Dec-20 10:47 UTC. Time now 2014-Dec-20 13:00 UTC.
Position N 42°51' E 008°04'.

Water temperature 15.6 ° C

Date/timePositionNaut miles runAvg speedWind from/ knotsBaromVisibWave heightAir tempDewpointWater temp
2014-Dec-20 10:47N 42°51' E 008°04'0 1.4 15.6
2014-Dec-20 10:28N 42°51' E 008°03'0 0.0 15.6
2014-Dec-20 09:37N 42°51' E 008°03'0 3.7 15.6
2014-Dec-20 09:31N 42°51' E 008°03'0 0.2 15.6
2014-Dec-20 08:44N 42°51' E 008°03'0 0.0 15.6
2014-Dec-20 07:52N 42°51' E 008°03'0 0.0 15.6
2014-Dec-20 06:43N 42°51' E 008°03'0 0.0 15.6
2014-Dec-20 06:40N 42°51' E 008°03'0 0.0 15.6
2014-Dec-20 06:13N 42°51' E 008°03'136.5 15.6
2014-Dec-20 06:12N 42°51' E 008°02'0 5.3 15.6
2014-Dec-20 06:08N 42°51' E 008°02'1 0.6 15.6
2014-Dec-20 05:01N 42°52' E 008°01'0 0.5 15.6
2014-Dec-20 04:33N 42°52' E 008°01'1 5.0 15.6
2014-Dec-20 04:24N 42°52' E 008°01'1 0.4 15.6
2014-Dec-20 02:47N 42°52' E 008°01'0 0.0 15.6
2014-Dec-20 02:45N 42°52' E 008°01'0 0.1 15.6
2014-Dec-20 01:04N 42°52' E 008°00'2 0.4 15.6
2014-Dec-19 21:23N 42°52' E 007°58'0 2.0 15.6
2014-Dec-19 21:13N 42°52' E 007°58'0 0.0 15.7
2014-Dec-19 20:36N 42°52' E 007°58'0 0.0
2014-Dec-19 20:32N 42°52' E 007°58'1 4.3 15.7
2014-Dec-19 20:25N 42°52' E 007°57'0 0.4 15.7
2014-Dec-19 19:32N 42°52' E 007°58'0 0.0 15.7
2014-Dec-19 18:55N 42°52' E 007°58'123.5 15.7
2014-Dec-19 18:53N 42°53' E 007°57'0 0.0 15.7
2014-Dec-19 18:27N 42°53' E 007°57'0 0.0 15.7
2014-Dec-19 17:51N 42°53' E 007°57'0 0.4 15.7
2014-Dec-19 17:09N 42°53' E 007°57'0 0.0 15.7
2014-Dec-19 16:48N 42°53' E 007°57'0 0.0 15.7
2014-Dec-19 16:42N 42°53' E 007°57'0 0.0 15.7
2014-Dec-19 16:12N 42°53' E 007°57'1 6.7 15.7
2014-Dec-19 16:05N 42°52' E 007°56'0 0.0 15.7
2014-Dec-19 15:07N 42°52' E 007°56'0 0.8 15.7
2014-Dec-19 14:32N 42°52' E 007°55'0 3.6 15.8
2014-Dec-19 14:26N 42°52' E 007°55'0 0.0 15.8
2014-Dec-19 12:47N 42°52' E 007°55'0 0.0 15.7
2014-Dec-19 12:46N 42°52' E 007°55'1 0.5 15.7
2014-Dec-19 11:37N 42°52' E 007°56'1 1.2 15.7
2014-Dec-19 11:00N 42°51' E 007°55'0 0.0 15.7
2014-Dec-19 10:46N 42°51' E 007°55'0 0.0 15.7
2014-Dec-19 09:58N 42°51' E 007°55'0 0.2 15.7
2014-Dec-19 09:07N 42°52' E 007°55'0 0.5 15.7
2014-Dec-19 08:17N 42°52' E 007°54'0 4.5 15.7
2014-Dec-19 08:14N 42°52' E 007°55'1 0.7 15.7
2014-Dec-19 07:07N 42°52' E 007°54'0 0.0
2014-Dec-19 06:45N 42°52' E 007°54'1 1.9 15.7
2014-Dec-19 06:22N 42°52' E 007°53'1 0.7 15.7
2014-Dec-19 05:03N 42°53' E 007°52'0 0.0 15.7
2014-Dec-19 04:43N 42°53' E 007°52'0 0.0 15.7
2014-Dec-19 03:47N 42°53' E 007°52'1 1.7 15.7
2014-Dec-19 03:22N 42°53' E 007°51'0 1.0 15.7
2014-Dec-19 02:57N 42°53' E 007°51'3 1.8 15.7
2014-Dec-19 01:15N 42°50' E 007°48'0 0.0 15.7
2014-Dec-18 21:43N 42°50' E 007°48'1 6.9 15.7
2014-Dec-18 21:36N 42°50' E 007°48'0 0.0 15.7
2014-Dec-18 21:32N 42°50' E 007°48'0 0.0 15.7
2014-Dec-18 20:55N 42°50' E 007°48'0 1.1 15.7
2014-Dec-18 20:45N 42°50' E 007°48'0 0.0 15.7
2014-Dec-18 20:00N 42°50' E 007°48'0 3.1 15.7
2014-Dec-18 19:53N 42°49' E 007°48'0 0.2 15.7
2014-Dec-18 19:25N 42°49' E 007°48'0 2.2 15.7
2014-Dec-18 19:13N 42°49' E 007°49'0 3.3 15.7
2014-Dec-18 19:06N 42°49' E 007°48'0 0.0 15.7
2014-Dec-18 18:20N 42°49' E 007°48'0 0.0 15.8
2014-Dec-18 17:48N 42°49' E 007°48'0 3.6 15.8
2014-Dec-18 17:43N 42°50' E 007°48'0 0.7 15.8
2014-Dec-18 17:11N 42°49' E 007°49'0 0.1 15.8
2014-Dec-18 16:23N 42°49' E 007°49'0 6.3 15.8
2014-Dec-18 16:20N 42°49' E 007°48'0 0.2 15.8
2014-Dec-18 15:34N 42°49' E 007°48'0 0.3 15.9
2014-Dec-18 14:44N 42°50' E 007°48'0 1.9 16.0
2014-Dec-18 14:37N 42°49' E 007°48'2 1.2 16.0
2014-Dec-18 13:00N 42°51' E 007°46'0 0.0 16.0
2014-Dec-18 12:58N 42°51' E 007°46'0 0.0 16.0
2014-Dec-18 11:53N 42°51' E 007°46'0 0.0 15.9
2014-Dec-18 11:16N 42°51' E 007°46'1 6.5
2014-Dec-18 11:05N 42°50' E 007°45'0 0.0
2014-Dec-18 11:02N 42°50' E 007°45'0 0.0 15.8
2014-Dec-18 10:19N 42°50' E 007°45'3 3.1 15.8
2014-Dec-18 09:24N 42°47' E 007°43'0 0.0 15.7
2014-Dec-18 08:35N 42°47' E 007°43'0 0.0 15.7
2014-Dec-18 07:16N 42°47' E 007°43'0 0.0 15.7
2014-Dec-18 06:33N 42°47' E 007°43'0 0.0 15.7
2014-Dec-18 05:51N 42°47' E 007°43'0 1.6 15.7
2014-Dec-18 05:35N 42°47' E 007°43'0 0.6 15.7
2014-Dec-18 04:58N 42°46' E 007°43'0 0.0 15.7
2014-Dec-18 04:54N 42°46' E 007°43'0 0.0 15.7
2014-Dec-18 04:08N 42°46' E 007°43'0 0.3 15.7
2014-Dec-18 03:56N 42°46' E 007°43'0 0.2 15.7
2014-Dec-18 03:15N 42°46' E 007°43'0 0.7 15.7
2014-Dec-18 03:10N 42°46' E 007°43'0 5.4 15.7
2014-Dec-18 03:08N 42°46' E 007°43'0 0.3 15.7
2014-Dec-18 01:33N 42°46' E 007°43'0 0.7 15.7
2014-Dec-18 01:27N 42°46' E 007°43'1 9.5 15.7
2014-Dec-18 01:19N 42°47' E 007°43'0 0.0 15.7
2014-Dec-17 22:04N 42°47' E 007°43'1 0.9 15.8
2014-Dec-17 21:13N 42°46' E 007°43'1 9.1
2014-Dec-17 21:06N 42°47' E 007°41'0 0.0 15.8
2014-Dec-17 20:24N 42°47' E 007°41'1 3.5 15.8
2014-Dec-17 20:15N 42°46' E 007°42'0 0.0 15.8
2014-Dec-17 19:55N 42°46' E 007°42'1 1.9 15.8
2014-Dec-17 19:25N 42°46' E 007°40'0 0.0 15.8
2014-Dec-17 17:38N 42°46' E 007°40'115.2 15.9
2014-Dec-17 17:34N 42°46' E 007°39'0 0.0 15.9
2014-Dec-17 16:41N 42°46' E 007°39'0 1.3 15.9
2014-Dec-17 16:36N 42°46' E 007°39'1 2.1 15.9
2014-Dec-17 15:59N 42°45' E 007°38'0 0.3 15.9
2014-Dec-17 14:51N 42°46' E 007°38'140.5 15.9
2014-Dec-17 14:50N 42°46' E 007°37'1 1.8 15.9
2014-Dec-17 14:18N 42°45' E 007°37'0 0.0 15.9
2014-Dec-17 13:11N 42°45' E 007°37'0 0.0 15.9
2014-Dec-17 13:07N 42°45' E 007°37'117.1
2014-Dec-17 13:02N 42°44' E 007°36'0 0.2 15.9
2014-Dec-17 11:30N 42°45' E 007°36'0 9.4 15.9
2014-Dec-17 11:28N 42°44' E 007°36'0 3.8 15.9
2014-Dec-17 11:21N 42°44' E 007°35'0 0.1 15.9
2014-Dec-17 10:39N 42°44' E 007°35'0 0.2 15.9
2014-Dec-17 09:51N 42°44' E 007°35'1 0.6 15.9
2014-Dec-17 08:58N 42°43' E 007°35'1 1.1 15.9
2014-Dec-17 08:05N 42°43' E 007°34'0 0.0 15.9
2014-Dec-17 06:44N 42°43' E 007°34'0 0.8 15.9
2014-Dec-17 06:14N 42°42' E 007°34'0 6.0 15.9
2014-Dec-17 06:10N 42°43' E 007°34'0 0.4 15.9
2014-Dec-17 05:08N 42°42' E 007°34'0 1.3 15.9
2014-Dec-17 05:03N 42°42' E 007°34'1 1.7 15.9
2014-Dec-17 04:33N 42°42' E 007°33'0 0.0 15.9
2014-Dec-17 04:28N 42°42' E 007°33'1 0.8 15.9
2014-Dec-17 03:28N 42°42' E 007°32'0 0.0 15.9
2014-Dec-17 03:22N 42°42' E 007°32'0 0.0 15.9
2014-Dec-17 03:19N 42°42' E 007°32'0 0.0 15.9
2014-Dec-17 03:14N 42°42' E 007°32'3 1.8 15.9
2014-Dec-17 01:40N 42°42' E 007°28'0 0.0 15.9
2014-Dec-16 23:52N 42°42' E 007°28'0 0.0 15.9
2014-Dec-16 22:24N 42°42' E 007°28'0 0.0 15.9
2014-Dec-16 21:29N 42°42' E 007°28'0 0.0 15.9
2014-Dec-16 20:43N 42°42' E 007°28'0 2.1 15.9
2014-Dec-16 20:36N 42°42' E 007°28'1 7.9 15.9
2014-Dec-16 20:27N 42°42' E 007°27'0 0.0 15.9
2014-Dec-16 19:50N 42°42' E 007°27'0 0.0 15.9
2014-Dec-16 19:47N 42°42' E 007°27'0 0.0 15.9
2014-Dec-16 19:01N 42°42' E 007°27'0 0.0 15.9
2014-Dec-16 18:50N 42°42' E 007°27'1 1.0 15.9
2014-Dec-16 18:02N 42°42' E 007°26'0 6.6 15.9
2014-Dec-16 17:59N 42°42' E 007°26'0 0.0 15.9
2014-Dec-16 17:13N 42°42' E 007°26'0 0.0 15.9
2014-Dec-16 17:08N 42°42' E 007°26'0 1.0 15.9
2014-Dec-16 16:46N 42°41' E 007°26'5 0.3 15.9
2014-Dec-16 00:07N 42°40' E 007°19'0 0.0 16.0
2014-Dec-15 22:44N 42°40' E 007°19'0 0.0 16.0
2014-Dec-15 21:49N 42°40' E 007°19'0 0.0 16.0
2014-Dec-15 21:03N 42°40' E 007°19'1 8.9 15.9
2014-Dec-15 20:58N 42°39' E 007°18'0 0.0 15.9
2014-Dec-15 20:54N 42°39' E 007°18'0 0.0 15.9
2014-Dec-15 20:17N 42°39' E 007°18'1 5.0 15.9
2014-Dec-15 20:08N 42°38' E 007°17'0 0.0 15.9
2014-Dec-15 19:20N 42°38' E 007°17'0 0.0 15.9
2014-Dec-15 18:24N 42°38' E 007°17'0 0.0 15.9
2014-Dec-15 17:45N 42°38' E 007°17'1 5.1 15.9
2014-Dec-15 17:38N 42°39' E 007°17'0 0.0 15.9
2014-Dec-15 16:59N 42°39' E 007°17'1 3.7 15.9
2014-Dec-15 16:47N 42°38' E 007°17'0 0.0 15.9
2014-Dec-15 15:20N 42°38' E 007°17'0 2.6 15.9
2014-Dec-15 15:10N 42°38' E 007°16'0 0.0 15.9
2014-Dec-15 15:04N 42°38' E 007°16'0 0.0 15.9
2014-Dec-15 13:34N 42°38' E 007°16'0 0.0 15.9
2014-Dec-15 13:31N 42°38' E 007°16'0 0.0
2014-Dec-15 13:29N 42°38' E 007°16'0 0.0 15.9
2014-Dec-15 11:46N 42°38' E 007°16'0 0.0 15.9
2014-Dec-15 11:20N 42°38' E 007°16'0 0.0 15.9
2014-Dec-15 10:32N 42°38' E 007°16'0 3.8 15.9
2014-Dec-15 10:25N 42°38' E 007°16'0 0.0 15.9
2014-Dec-15 09:41N 42°38' E 007°16'0 0.0 15.8
2014-Dec-15 08:55N 42°38' E 007°16'0 0.0 15.8
2014-Dec-15 08:50N 42°38' E 007°16'1 1.4 15.8
2014-Dec-15 07:53N 42°38' E 007°14'0 0.0 15.8
2014-Dec-15 07:09N 42°38' E 007°14'0 0.0 15.8
2014-Dec-15 07:04N 42°38' E 007°14'0 0.0 15.8
2014-Dec-15 07:00N 42°38' E 007°14'0 0.0 15.8
2014-Dec-15 05:32N 42°38' E 007°14'0 0.0 15.8
2014-Dec-15 05:28N 42°38' E 007°14'0 0.0 15.8
2014-Dec-15 05:23N 42°38' E 007°14'0 0.3 15.8
2014-Dec-15 03:51N 42°38' E 007°13'0 0.0 15.9
2014-Dec-15 03:44N 42°38' E 007°13'0 0.0 15.9
2014-Dec-15 03:37N 42°38' E 007°13'0 0.0 15.9
2014-Dec-15 02:00N 42°38' E 007°13'0 0.0 15.9
2014-Dec-15 01:53N 42°38' E 007°13'0 0.0 15.9
2014-Dec-15 00:21N 42°38' E 007°13'112.8 15.9
2014-Dec-15 00:16N 42°38' E 007°12'0 0.0 15.9
2014-Dec-14 22:17N 42°38' E 007°12'0 0.0 14.5
2014-Dec-14 21:24N 42°38' E 007°12'1 4.0 15.9
2014-Dec-14 21:15N 42°37' E 007°12'0 0.0 15.9
2014-Dec-14 20:38N 42°37' E 007°12'0 0.0 15.9
2014-Dec-14 20:28N 42°37' E 007°12'0 0.7 15.9
2014-Dec-14 19:52N 42°37' E 007°13'0 3.3 15.9
2014-Dec-14 19:44N 42°37' E 007°12'0 3.3 15.9
2014-Dec-14 19:36N 42°37' E 007°13'0 0.0 15.9
2014-Dec-14 18:52N 42°37' E 007°13'0 0.0 15.9
2014-Dec-14 18:12N 42°37' E 007°13'0 0.0 15.9
2014-Dec-14 18:03N 42°37' E 007°13'0 0.5 15.9
2014-Dec-14 17:13N 42°37' E 007°12'0 8.8
2014-Dec-14 17:10N 42°37' E 007°11'0 0.0 15.9
2014-Dec-14 16:34N 42°37' E 007°11'0 0.0 15.9
2014-Dec-14 15:31N 42°37' E 007°11'0 0.0 15.9
2014-Dec-14 15:29N 42°37' E 007°11'0 2.6 15.9
2014-Dec-14 15:19N 42°37' E 007°11'0 0.0 15.9
2014-Dec-14 13:48N 42°37' E 007°11'1 6.4 15.9
2014-Dec-14 13:41N 42°37' E 007°10'110.6 15.9
2014-Dec-14 13:36N 42°37' E 007°11'126.5 15.9
2014-Dec-14 13:34N 42°37' E 007°10'0 0.0 15.9
2014-Dec-14 11:59N 42°37' E 007°10'113.2 15.9
2014-Dec-14 11:55N 42°37' E 007°09'2 6.2 15.9
2014-Dec-14 11:38N 42°37' E 007°11'0 0.0 15.9
2014-Dec-14 10:54N 42°37' E 007°11'0 0.0 15.9
2014-Dec-14 10:50N 42°37' E 007°11'1 1.6 15.9
2014-Dec-14 10:01N 42°37' E 007°10'0 0.5 15.9
2014-Dec-14 09:11N 42°37' E 007°09'1 1.6 15.9
2014-Dec-14 08:16N 42°35' E 007°08'0 0.0 15.9
2014-Dec-14 05:58N 42°35' E 007°08'0 0.0 15.9
2014-Dec-14 05:43N 42°35' E 007°08'0 0.0 15.9
2014-Dec-14 05:37N 42°35' E 007°08'0 0.0 15.9
2014-Dec-14 04:18N 42°35' E 007°08'0 3.8 15.9
2014-Dec-14 04:11N 42°35' E 007°08'0 0.0 15.9
2014-Dec-14 04:09N 42°35' E 007°08'1 3.3 15.9
2014-Dec-14 03:58N 42°35' E 007°08'1 3.7 15.9
2014-Dec-14 03:46N 42°34' E 007°08'0 0.1 15.9
2014-Dec-14 02:18N 42°34' E 007°08'0 0.0 15.9
2014-Dec-14 00:30N 42°34' E 007°08'7 0.3 15.9
2014-Dec-12 22:07N 42°28' E 007°04'0 0.0 16.0
2014-Dec-12 21:58N 42°28' E 007°04'1 1.4 16.0
2014-Dec-12 21:10N 42°27' E 007°03'0 0.0 16.0
2014-Dec-12 20:30N 42°27' E 007°03'0 0.0 16.0
2014-Dec-12 20:17N 42°27' E 007°03'0 0.0 16.0
2014-Dec-12 19:33N 42°27' E 007°03'0 7.9 16.0
2014-Dec-12 19:30N 42°28' E 007°04'0 0.2 16.0
2014-Dec-12 19:14N 42°28' E 007°04'0 0.7 16.0
2014-Dec-12 18:44N 42°27' E 007°04'0 0.4 16.0
2014-Dec-12 17:58N 42°27' E 007°04'1 0.4 16.0
2014-Dec-12 15:54N 42°27' E 007°03'1 0.4 16.1
2014-Dec-12 14:12N 42°26' E 007°03'1 0.5 16.1
2014-Dec-12 12:15N 42°26' E 007°01'0 0.3 16.1
2014-Dec-12 10:38N 42°25' E 007°02'0 0.1 16.1
2014-Dec-12 09:01N 42°25' E 007°02'124.7 16.1
2014-Dec-12 08:59N 42°24' E 007°01'0 0.0 16.1
2014-Dec-12 08:08N 42°24' E 007°01'1 0.4 16.1
2014-Dec-12 06:38N 42°25' E 007°02'0 0.1 16.1
2014-Dec-12 05:23N 42°24' E 007°02'0 0.7 16.1
2014-Dec-12 04:59N 42°24' E 007°02'0 0.0 16.1
2014-Dec-12 04:22N 42°24' E 007°02'0 0.3 16.2
2014-Dec-12 04:13N 42°24' E 007°02'0 0.8 16.2
2014-Dec-12 03:46N 42°24' E 007°02'1 1.2 16.2
2014-Dec-12 03:16N 42°25' E 007°02'0 0.0 16.2
2014-Dec-12 02:36N 42°25' E 007°02'0 1.3 16.2
2014-Dec-12 02:34N 42°25' E 007°02'217.1 16.2
2014-Dec-12 02:27N 42°23' E 007°01'0 0.0 16.2
2014-Dec-11 22:27N 42°23' E 007°01'0 0.3 16.2
2014-Dec-11 21:30N 42°23' E 007°01'0 0.0 16.2
2014-Dec-11 20:48N 42°23' E 007°01'0 2.2 16.2
2014-Dec-11 20:41N 42°23' E 007°01'0 0.0 16.2
2014-Dec-11 20:00N 42°23' E 007°01'0 0.4 16.2
2014-Dec-11 19:48N 42°23' E 007°01'1 0.8 16.2
2014-Dec-11 19:05N 42°22' E 007°01'0 0.0 16.2
2014-Dec-11 18:07N 42°22' E 007°01'0 0.0 16.2
2014-Dec-11 16:47N 42°22' E 007°01'2 5.3 16.3
2014-Dec-11 16:28N 42°23' E 007°03'1 1.0
2014-Dec-11 15:56N 42°23' E 007°04'0 0.1 16.3
2014-Dec-11 15:03N 42°23' E 007°04'3 3.3 16.3
2014-Dec-11 14:15N 42°25' E 007°05'0 0.0 16.3
2014-Dec-11 10:52N 42°25' E 007°05'122.4 16.3
2014-Dec-11 10:49N 42°26' E 007°03'0 0.0 16.3
2014-Dec-11 10:15N 42°26' E 007°03'2 2.2 16.3
2014-Dec-11 09:22N 42°25' E 007°01'0 0.0 16.3
2014-Dec-11 08:29N 42°25' E 007°01'0 0.0 16.3
2014-Dec-11 07:36N 42°25' E 007°01'0 0.0 16.3
2014-Dec-11 07:04N 42°25' E 007°01'0 0.2 16.3
2014-Dec-11 06:13N 42°25' E 007°01'0 1.6 16.3
2014-Dec-11 05:57N 42°25' E 007°00'1 1.7 16.3
2014-Dec-11 05:22N 42°24' E 007°00'1 1.4 16.3
2014-Dec-11 04:24N 42°23' E 006°60'1 9.1 16.3
2014-Dec-11 04:15N 42°24' E 006°59'1 2.7 16.3
2014-Dec-11 03:45N 42°23' E 006°60'0 0.0 16.3
2014-Dec-11 02:54N 42°23' E 006°60'1 8.0 16.3
2014-Dec-11 02:46N 42°23' E 006°58'224.4 16.3
2014-Dec-11 02:41N 42°21' E 006°59'0 0.0 16.3
2014-Dec-11 01:06N 42°21' E 006°59'2 0.7 16.3
2014-Dec-10 22:46N 42°20' E 007°01'237.1 16.3
2014-Dec-10 22:43N 42°19' E 007°04'0 0.0
2014-Dec-10 21:57N 42°19' E 007°04'0 0.0 16.3
2014-Dec-10 21:09N 42°19' E 007°04'0 2.7 16.3
2014-Dec-10 20:58N 42°20' E 007°03'0 0.1
2014-Dec-10 20:16N 42°20' E 007°03'236.0 16.3
2014-Dec-10 20:12N 42°22' E 007°03'0 0.0 16.3
2014-Dec-10 18:39N 42°22' E 007°03'0 0.0 16.4
2014-Dec-10 18:37N 42°22' E 007°03'0 0.0 16.4
2014-Dec-10 17:51N 42°22' E 007°03'1 1.2 16.4
2014-Dec-10 17:09N 42°23' E 007°02'0 0.0 16.4
2014-Dec-10 16:56N 42°23' E 007°02'0 0.0 16.4
2014-Dec-10 16:18N 42°23' E 007°02'1 7.5 16.4
2014-Dec-10 16:07N 42°23' E 007°01'0 0.0 16.4
2014-Dec-10 14:32N 42°23' E 007°01'230.6 16.4
2014-Dec-10 14:28N 42°22' E 006°58'234.2 16.4
2014-Dec-10 14:24N 42°23' E 007°01'2 1.3 16.4
2014-Dec-10 12:42N 42°22' E 006°58'2 1.6 16.4
2014-Dec-10 11:22N 42°20' E 006°58'0 0.0 16.4
2014-Dec-10 11:05N 42°20' E 006°58'0 6.0 16.4
2014-Dec-10 11:00N 42°20' E 006°58'   16.4

Dump ship's entire track history